Terminal Aerodrome Forecast
Issued by NWS

Home | Current Version | Previous Version | Text Only | Print | Product List | Glossary On
Versions: 1 2 3 4 5 6 7 8 9 10 11 12 13 14 15 16 17
000
FTUS43 KDLH 281100
TAFHYR
TAF
KHYR 281136Z 2812/2912 00000KT P6SM BKN250 WS010/18030KT
     FM281600 35005KT P6SM VCSH OVC080
     FM282200 35007KT P6SM VCSH SCT011 OVC050
     FM290100 VRB04KT P6SM SCT150=

USA.gov is the U.S. government's official web portal to all federal, state and local government web resources and services.